sensor_id;sensor_type;location;lat;lon;timestamp;pressure;altitude;pressure_sealevel;temperature;humidity
45129;BME280;35512;56.312;101.728;2023-01-13T00:01:33;98350.66;;;-27.03;69.23
45129;BME280;35512;56.312;101.728;2023-01-13T00:04:02;98352.63;;;-26.92;69.19
45129;BME280;35512;56.312;101.728;2023-01-13T00:06:32;98343.38;;;-26.93;68.88
45129;BME280;35512;56.312;101.728;2023-01-13T00:09:01;98349.09;;;-26.89;68.79
45129;BME280;35512;56.312;101.728;2023-01-13T00:11:31;98346.97;;;-26.81;69.04
45129;BME280;35512;56.312;101.728;2023-01-13T00:14:01;98356.16;;;-26.79;68.87
45129;BME280;35512;56.312;101.728;2023-01-13T00:16:30;98340.28;;;-26.82;68.81
45129;BME280;35512;56.312;101.728;2023-01-13T00:18:59;98344.78;;;-26.87;68.72
45129;BME280;35512;56.312;101.728;2023-01-13T00:21:27;98342.31;;;-26.89;68.86
45129;BME280;35512;56.312;101.728;2023-01-13T00:23:56;98345.06;;;-26.94;68.68
45129;BME280;35512;56.312;101.728;2023-01-13T00:26:27;98336.63;;;-26.94;68.75
45129;BME280;35512;56.312;101.728;2023-01-13T00:28:58;98332.88;;;-27.03;68.68
45129;BME280;35512;56.312;101.728;2023-01-13T00:31:28;98338.00;;;-27.04;68.48
45129;BME280;35512;56.312;101.728;2023-01-13T00:33:58;98339.66;;;-27.03;68.95
45129;BME280;35512;56.312;101.728;2023-01-13T00:36:28;98342.88;;;-27.00;68.88
45129;BME280;35512;56.312;101.728;2023-01-13T00:38:58;98346.31;;;-27.01;68.81
45129;BME280;35512;56.312;101.728;2023-01-13T00:41:27;98342.78;;;-26.98;68.76
45129;BME280;35512;56.312;101.728;2023-01-13T00:44:16;98347.69;;;-26.95;68.67
45129;BME280;35512;56.312;101.728;2023-01-13T00:46:45;98340.00;;;-26.94;68.65
45129;BME280;35512;56.312;101.728;2023-01-13T00:49:13;98341.72;;;-26.94;68.64
45129;BME280;35512;56.312;101.728;2023-01-13T00:51:42;98340.84;;;-26.93;68.70
45129;BME280;35512;56.312;101.728;2023-01-13T00:54:11;98330.88;;;-26.98;68.94
45129;BME280;35512;56.312;101.728;2023-01-13T00:56:41;98335.06;;;-26.97;68.71
45129;BME280;35512;56.312;101.728;2023-01-13T00:59:12;98339.00;;;-26.91;68.74
45129;BME280;35512;56.312;101.728;2023-01-13T01:01:42;98330.31;;;-26.87;68.86
45129;BME280;35512;56.312;101.728;2023-01-13T01:04:12;98329.03;;;-26.78;68.92
45129;BME280;35512;56.312;101.728;2023-01-13T01:06:41;98325.34;;;-26.72;68.94
45129;BME280;35512;56.312;101.728;2023-01-13T01:09:12;98326.31;;;-26.59;68.76
45129;BME280;35512;56.312;101.728;2023-01-13T01:11:42;98323.19;;;-26.48;68.93
45129;BME280;35512;56.312;101.728;2023-01-13T01:14:12;98321.84;;;-26.39;69.07
45129;BME280;35512;56.312;101.728;2023-01-13T01:16:41;98328.31;;;-26.34;68.89
45129;BME280;35512;56.312;101.728;2023-01-13T01:19:10;98318.06;;;-26.32;68.73
45129;BME280;35512;56.312;101.728;2023-01-13T01:21:40;98309.69;;;-26.34;68.66
45129;BME280;35512;56.312;101.728;2023-01-13T01:24:09;98299.03;;;-26.41;68.71
45129;BME280;35512;56.312;101.728;2023-01-13T01:26:38;98303.53;;;-26.30;68.72
45129;BME280;35512;56.312;101.728;2023-01-13T01:29:11;98308.28;;;-26.24;68.60
45129;BME280;35512;56.312;101.728;2023-01-13T01:31:42;98305.50;;;-26.19;68.43
45129;BME280;35512;56.312;101.728;2023-01-13T01:34:11;98310.31;;;-26.15;68.94
45129;BME280;35512;56.312;101.728;2023-01-13T01:36:40;98301.59;;;-26.11;68.87
45129;BME280;35512;56.312;101.728;2023-01-13T01:39:10;98305.03;;;-26.12;68.49
45129;BME280;35512;56.312;101.728;2023-01-13T01:41:38;98301.50;;;-26.09;68.59
45129;BME280;35512;56.312;101.728;2023-01-13T01:44:50;98299.16;;;-26.12;68.45
45129;BME280;35512;56.312;101.728;2023-01-13T01:47:21;98300.53;;;-26.07;68.45
45129;BME280;35512;56.312;101.728;2023-01-13T01:49:52;98290.91;;;-26.01;68.43
45129;BME280;35512;56.312;101.728;2023-01-13T01:52:30;98282.59;;;-26.05;68.55
45129;BME280;35512;56.312;101.728;2023-01-13T01:55:07;98297.91;;;-25.91;68.55
45129;BME280;35512;56.312;101.728;2023-01-13T01:57:38;98288.91;;;-25.82;68.68
45129;BME280;35512;56.312;101.728;2023-01-13T02:00:11;98276.75;;;-25.77;68.17
45129;BME280;35512;56.312;101.728;2023-01-13T02:02:43;98277.25;;;-25.86;67.94
45129;BME280;35512;56.312;101.728;2023-01-13T02:05:13;98277.53;;;-25.76;67.93
45129;BME280;35512;56.312;101.728;2023-01-13T02:07:45;98284.09;;;-25.72;68.14
45129;BME280;35512;56.312;101.728;2023-01-13T02:10:18;98270.47;;;-25.71;68.03
45129;BME280;35512;56.312;101.728;2023-01-13T02:12:48;98266.13;;;-25.69;68.19
45129;BME280;35512;56.312;101.728;2023-01-13T02:15:21;98272.28;;;-25.59;68.30
45129;BME280;35512;56.312;101.728;2023-01-13T02:18:10;98263.56;;;-25.55;68.38
45129;BME280;35512;56.312;101.728;2023-01-13T02:20:56;98260.00;;;-25.52;68.55
45129;BME280;35512;56.312;101.728;2023-01-13T02:26:56;98243.66;;;-25.33;68.41
45129;BME280;35512;56.312;101.728;2023-01-13T02:38:34;98244.03;;;-24.98;68.34
45129;BME280;35512;56.312;101.728;2023-01-13T02:44:29;98234.38;;;-24.65;67.46
45129;BME280;35512;56.312;101.728;2023-01-13T02:47:05;98231.72;;;-24.64;67.12
45129;BME280;35512;56.312;101.728;2023-01-13T02:49:57;98239.38;;;-24.64;67.33
45129;BME280;35512;56.312;101.728;2023-01-13T02:55:09;98225.84;;;-24.39;67.52
45129;BME280;35512;56.312;101.728;2023-01-13T02:57:40;98229.69;;;-24.19;67.83
45129;BME280;35512;56.312;101.728;2023-01-13T03:00:11;98218.06;;;-24.10;67.24
45129;BME280;35512;56.312;101.728;2023-01-13T03:02:41;98220.72;;;-23.98;67.09
45129;BME280;35512;56.312;101.728;2023-01-13T03:05:14;98211.94;;;-23.94;66.93
45129;BME280;35512;56.312;101.728;2023-01-13T03:10:55;98212.56;;;-23.91;65.83
45129;BME280;35512;56.312;101.728;2023-01-13T03:13:43;98215.19;;;-23.92;65.96
45129;BME280;35512;56.312;101.728;2023-01-13T03:24:34;98204.06;;;-23.91;65.67
45129;BME280;35512;56.312;101.728;2023-01-13T03:32:43;98196.16;;;-23.62;66.61
45129;BME280;35512;56.312;101.728;2023-01-13T03:35:26;98198.28;;;-23.43;66.39
45129;BME280;35512;56.312;101.728;2023-01-13T03:38:08;98193.28;;;-23.32;66.30
45129;BME280;35512;56.312;101.728;2023-01-13T03:40:47;98189.38;;;-23.25;65.75
45129;BME280;35512;56.312;101.728;2023-01-13T03:43:21;98176.53;;;-23.12;66.58
45129;BME280;35512;56.312;101.728;2023-01-13T03:46:25;98188.13;;;-22.95;66.44
45129;BME280;35512;56.312;101.728;2023-01-13T03:48:58;98174.91;;;-22.89;65.86
45129;BME280;35512;56.312;101.728;2023-01-13T03:51:31;98171.31;;;-22.86;65.46
45129;BME280;35512;56.312;101.728;2023-01-13T03:54:05;98176.50;;;-22.75;65.73
45129;BME280;35512;56.312;101.728;2023-01-13T03:56:46;98162.22;;;-22.66;65.33
45129;BME280;35512;56.312;101.728;2023-01-13T03:59:20;98171.16;;;-22.48;65.61
45129;BME280;35512;56.312;101.728;2023-01-13T04:09:56;98151.41;;;-22.00;66.17
45129;BME280;35512;56.312;101.728;2023-01-13T04:12:32;98150.88;;;-21.92;66.48
45129;BME280;35512;56.312;101.728;2023-01-13T04:15:23;98138.97;;;-21.93;66.62
45129;BME280;35512;56.312;101.728;2023-01-13T04:18:13;98135.84;;;-21.86;66.05
45129;BME280;35512;56.312;101.728;2023-01-13T04:20:44;98136.75;;;-21.98;66.03
45129;BME280;35512;56.312;101.728;2023-01-13T04:23:15;98127.91;;;-22.05;65.09
45129;BME280;35512;56.312;101.728;2023-01-13T04:25:44;98131.84;;;-22.13;65.03
45129;BME280;35512;56.312;101.728;2023-01-13T04:28:14;98126.34;;;-22.19;64.83
45129;BME280;35512;56.312;101.728;2023-01-13T04:30:44;98121.94;;;-22.28;64.68
45129;BME280;35512;56.312;101.728;2023-01-13T04:33:15;98122.50;;;-22.25;65.11
45129;BME280;35512;56.312;101.728;2023-01-13T04:35:45;98115.41;;;-22.10;65.79
45129;BME280;35512;56.312;101.728;2023-01-13T04:38:19;98108.56;;;-21.87;66.06
45129;BME280;35512;56.312;101.728;2023-01-13T04:40:48;98103.09;;;-21.71;65.52
45129;BME280;35512;56.312;101.728;2023-01-13T04:43:18;98099.91;;;-21.52;65.86
45129;BME280;35512;56.312;101.728;2023-01-13T04:45:47;98099.28;;;-21.33;64.81
45129;BME280;35512;56.312;101.728;2023-01-13T04:48:17;98104.09;;;-21.39;64.95
45129;BME280;35512;56.312;101.728;2023-01-13T04:50:46;98100.47;;;-21.37;65.81
45129;BME280;35512;56.312;101.728;2023-01-13T04:53:15;98092.41;;;-21.21;65.30
45129;BME280;35512;56.312;101.728;2023-01-13T04:55:44;98086.19;;;-21.18;65.44
45129;BME280;35512;56.312;101.728;2023-01-13T04:58:15;98073.69;;;-21.12;64.97
45129;BME280;35512;56.312;101.728;2023-01-13T05:00:44;98078.34;;;-21.05;64.86
45129;BME280;35512;56.312;101.728;2023-01-13T05:03:13;98072.50;;;-20.96;65.19
45129;BME280;35512;56.312;101.728;2023-01-13T05:05:43;98078.06;;;-20.91;65.12
45129;BME280;35512;56.312;101.728;2023-01-13T05:08:12;98074.31;;;-20.87;65.37
45129;BME280;35512;56.312;101.728;2023-01-13T05:10:41;98068.50;;;-20.89;65.95
45129;BME280;35512;56.312;101.728;2023-01-13T05:13:11;98065.88;;;-20.78;65.66
45129;BME280;35512;56.312;101.728;2023-01-13T05:16:12;98060.50;;;-20.74;64.82
45129;BME280;35512;56.312;101.728;2023-01-13T05:19:00;98058.59;;;-20.94;65.44
45129;BME280;35512;56.312;101.728;2023-01-13T05:21:29;98048.06;;;-20.90;65.87
45129;BME280;35512;56.312;101.728;2023-01-13T05:24:16;98051.31;;;-20.67;66.28
45129;BME280;35512;56.312;101.728;2023-01-13T05:27:03;98047.19;;;-20.59;65.99
45129;BME280;35512;56.312;101.728;2023-01-13T05:29:32;98051.38;;;-20.57;66.10
45129;BME280;35512;56.312;101.728;2023-01-13T05:32:01;98033.72;;;-20.51;65.95
45129;BME280;35512;56.312;101.728;2023-01-13T05:34:31;98037.41;;;-20.44;66.55
45129;BME280;35512;56.312;101.728;2023-01-13T05:37:01;98036.81;;;-20.26;66.58
45129;BME280;35512;56.312;101.728;2023-01-13T05:39:30;98035.63;;;-20.22;66.40
45129;BME280;35512;56.312;101.728;2023-01-13T05:42:20;98025.66;;;-20.15;66.59
45129;BME280;35512;56.312;101.728;2023-01-13T05:45:08;98026.84;;;-20.19;66.27
45129;BME280;35512;56.312;101.728;2023-01-13T05:47:37;98007.88;;;-20.28;66.26
45129;BME280;35512;56.312;101.728;2023-01-13T05:50:07;98008.06;;;-20.41;66.04
45129;BME280;35512;56.312;101.728;2023-01-13T05:52:36;98002.25;;;-20.43;66.20
45129;BME280;35512;56.312;101.728;2023-01-13T05:55:05;97998.72;;;-20.42;65.55
45129;BME280;35512;56.312;101.728;2023-01-13T05:57:34;98005.94;;;-20.57;65.35
45129;BME280;35512;56.312;101.728;2023-01-13T06:00:05;97994.41;;;-20.63;64.91
45129;BME280;35512;56.312;101.728;2023-01-13T06:02:41;97994.13;;;-20.69;66.01
45129;BME280;35512;56.312;101.728;2023-01-13T06:05:10;98004.66;;;-20.51;66.16
45129;BME280;35512;56.312;101.728;2023-01-13T06:07:39;98005.22;;;-20.38;65.87
45129;BME280;35512;56.312;101.728;2023-01-13T06:10:08;97993.47;;;-20.40;65.42
45129;BME280;35512;56.312;101.728;2023-01-13T06:12:37;97982.81;;;-20.36;65.72
45129;BME280;35512;56.312;101.728;2023-01-13T06:15:07;97987.78;;;-20.44;64.78
45129;BME280;35512;56.312;101.728;2023-01-13T06:17:36;97986.50;;;-20.60;64.40
45129;BME280;35512;56.312;101.728;2023-01-13T06:20:05;97971.69;;;-20.77;64.67
45129;BME280;35512;56.312;101.728;2023-01-13T06:22:42;97988.88;;;-20.68;65.43
45129;BME280;35512;56.312;101.728;2023-01-13T06:28:05;97975.94;;;-20.56;66.11
45129;BME280;35512;56.312;101.728;2023-01-13T06:30:39;97952.75;;;-20.45;66.23
45129;BME280;35512;56.312;101.728;2023-01-13T06:33:13;97959.16;;;-20.30;66.89
45129;BME280;35512;56.312;101.728;2023-01-13T06:35:48;97952.44;;;-20.21;66.13
45129;BME280;35512;56.312;101.728;2023-01-13T06:38:19;97942.78;;;-20.29;65.51
45129;BME280;35512;56.312;101.728;2023-01-13T06:40:50;97942.09;;;-20.40;65.39
45129;BME280;35512;56.312;101.728;2023-01-13T06:43:20;97956.69;;;-20.41;66.42
45129;BME280;35512;56.312;101.728;2023-01-13T06:45:54;97938.19;;;-20.35;66.07
45129;BME280;35512;56.312;101.728;2023-01-13T06:48:33;97943.03;;;-20.42;65.06
45129;BME280;35512;56.312;101.728;2023-01-13T06:51:04;97941.31;;;-20.62;65.63
45129;BME280;35512;56.312;101.728;2023-01-13T06:53:32;97942.66;;;-20.68;65.62
45129;BME280;35512;56.312;101.728;2023-01-13T06:56:01;97938.28;;;-20.77;64.90
45129;BME280;35512;56.312;101.728;2023-01-13T06:58:30;97928.03;;;-20.98;65.01
45129;BME280;35512;56.312;101.728;2023-01-13T07:01:00;97932.28;;;-21.08;64.89
45129;BME280;35512;56.312;101.728;2023-01-13T07:03:30;97928.34;;;-21.13;65.36
45129;BME280;35512;56.312;101.728;2023-01-13T07:05:59;97930.28;;;-21.05;65.48
45129;BME280;35512;56.312;101.728;2023-01-13T07:08:29;97928.78;;;-21.07;65.46
45129;BME280;35512;56.312;101.728;2023-01-13T07:11:00;97910.50;;;-21.14;65.07
45129;BME280;35512;56.312;101.728;2023-01-13T07:13:29;97928.53;;;-21.04;65.36
45129;BME280;35512;56.312;101.728;2023-01-13T07:16:17;97925.13;;;-21.05;66.07
45129;BME280;35512;56.312;101.728;2023-01-13T07:18:46;97901.50;;;-21.08;65.88
45129;BME280;35512;56.312;101.728;2023-01-13T07:21:15;97907.56;;;-21.09;65.00
45129;BME280;35512;56.312;101.728;2023-01-13T07:23:47;97905.63;;;-21.17;65.77
45129;BME280;35512;56.312;101.728;2023-01-13T07:26:16;97911.00;;;-21.20;65.24
45129;BME280;35512;56.312;101.728;2023-01-13T07:28:45;97906.34;;;-21.27;65.47
45129;BME280;35512;56.312;101.728;2023-01-13T07:31:18;97905.88;;;-21.20;65.82
45129;BME280;35512;56.312;101.728;2023-01-13T07:33:48;97889.53;;;-21.40;65.77
45129;BME280;35512;56.312;101.728;2023-01-13T07:36:17;97898.59;;;-21.36;66.06
45129;BME280;35512;56.312;101.728;2023-01-13T07:38:46;97890.72;;;-21.45;66.09
45129;BME280;35512;56.312;101.728;2023-01-13T07:41:15;97898.72;;;-21.38;66.30
45129;BME280;35512;56.312;101.728;2023-01-13T07:44:06;97900.84;;;-21.43;66.53
45129;BME280;35512;56.312;101.728;2023-01-13T07:46:38;97900.03;;;-21.43;66.22
45129;BME280;35512;56.312;101.728;2023-01-13T07:49:08;97899.16;;;-21.54;66.28
45129;BME280;35512;56.312;101.728;2023-01-13T07:51:38;97894.72;;;-21.52;66.35
45129;BME280;35512;56.312;101.728;2023-01-13T07:54:07;97890.22;;;-21.59;66.79
45129;BME280;35512;56.312;101.728;2023-01-13T07:56:36;97886.25;;;-21.52;66.38
45129;BME280;35512;56.312;101.728;2023-01-13T07:59:05;97888.03;;;-21.64;66.62
45129;BME280;35512;56.312;101.728;2023-01-13T08:01:36;97883.03;;;-21.66;66.86
45129;BME280;35512;56.312;101.728;2023-01-13T08:04:05;97879.41;;;-21.63;67.20
45129;BME280;35512;56.312;101.728;2023-01-13T08:06:38;97870.09;;;-21.64;66.97
45129;BME280;35512;56.312;101.728;2023-01-13T08:09:08;97868.47;;;-21.65;66.87
45129;BME280;35512;56.312;101.728;2023-01-13T08:11:37;97869.50;;;-21.68;66.96
45129;BME280;35512;56.312;101.728;2023-01-13T08:14:06;97869.63;;;-21.69;67.09
45129;BME280;35512;56.312;101.728;2023-01-13T08:16:35;97876.16;;;-21.65;66.64
45129;BME280;35512;56.312;101.728;2023-01-13T08:19:04;97868.13;;;-21.72;67.01
45129;BME280;35512;56.312;101.728;2023-01-13T08:21:33;97862.19;;;-21.72;67.27
45129;BME280;35512;56.312;101.728;2023-01-13T08:24:02;97870.69;;;-21.72;67.13
45129;BME280;35512;56.312;101.728;2023-01-13T08:26:31;97871.88;;;-21.76;67.35
45129;BME280;35512;56.312;101.728;2023-01-13T08:29:00;97862.00;;;-21.81;67.64
45129;BME280;35512;56.312;101.728;2023-01-13T08:31:29;97852.09;;;-21.85;67.83
45129;BME280;35512;56.312;101.728;2023-01-13T08:33:58;97853.25;;;-21.78;67.58
45129;BME280;35512;56.312;101.728;2023-01-13T08:36:27;97857.06;;;-21.72;67.61
45129;BME280;35512;56.312;101.728;2023-01-13T08:38:56;97846.03;;;-21.84;67.70
45129;BME280;35512;56.312;101.728;2023-01-13T08:41:25;97855.69;;;-21.76;67.60
45129;BME280;35512;56.312;101.728;2023-01-13T08:44:13;97854.19;;;-21.79;67.96
45129;BME280;35512;56.312;101.728;2023-01-13T08:46:41;97849.78;;;-21.88;67.74
45129;BME280;35512;56.312;101.728;2023-01-13T08:49:10;97843.84;;;-21.89;67.93
45129;BME280;35512;56.312;101.728;2023-01-13T08:51:40;97846.41;;;-21.89;68.12
45129;BME280;35512;56.312;101.728;2023-01-13T08:54:09;97842.91;;;-21.88;68.33
45129;BME280;35512;56.312;101.728;2023-01-13T08:56:40;97833.09;;;-21.83;68.43
45129;BME280;35512;56.312;101.728;2023-01-13T08:59:18;97824.47;;;-21.82;68.56
45129;BME280;35512;56.312;101.728;2023-01-13T09:01:48;97822.59;;;-21.80;68.56
45129;BME280;35512;56.312;101.728;2023-01-13T09:04:19;97815.41;;;-21.86;68.64
45129;BME280;35512;56.312;101.728;2023-01-13T09:06:49;97825.53;;;-21.84;68.88
45129;BME280;35512;56.312;101.728;2023-01-13T09:09:19;97813.16;;;-21.79;68.94
45129;BME280;35512;56.312;101.728;2023-01-13T09:11:49;97816.19;;;-21.74;69.00
45129;BME280;35512;56.312;101.728;2023-01-13T09:14:37;97809.16;;;-21.72;69.25
45129;BME280;35512;56.312;101.728;2023-01-13T09:17:07;97804.47;;;-21.67;69.20
45129;BME280;35512;56.312;101.728;2023-01-13T09:19:36;97798.97;;;-21.62;69.22
45129;BME280;35512;56.312;101.728;2023-01-13T09:22:06;97797.47;;;-21.65;69.24
45129;BME280;35512;56.312;101.728;2023-01-13T09:24:37;97790.09;;;-21.58;69.48
45129;BME280;35512;56.312;101.728;2023-01-13T09:27:07;97799.03;;;-21.52;69.68
45129;BME280;35512;56.312;101.728;2023-01-13T09:29:36;97794.44;;;-21.49;69.63
45129;BME280;35512;56.312;101.728;2023-01-13T09:32:05;97794.16;;;-21.46;69.47
45129;BME280;35512;56.312;101.728;2023-01-13T09:34:34;97778.91;;;-21.47;69.60
45129;BME280;35512;56.312;101.728;2023-01-13T09:37:22;97778.53;;;-21.42;69.77
45129;BME280;35512;56.312;101.728;2023-01-13T09:39:51;97780.72;;;-21.38;69.95
45129;BME280;35512;56.312;101.728;2023-01-13T09:50:59;97763.88;;;-21.31;69.91
45129;BME280;35512;56.312;101.728;2023-01-13T09:53:37;97762.97;;;-21.20;69.75
45129;BME280;35512;56.312;101.728;2023-01-13T09:56:08;97763.38;;;-21.24;69.77
45129;BME280;35512;56.312;101.728;2023-01-13T09:58:38;97751.16;;;-21.32;69.83
45129;BME280;35512;56.312;101.728;2023-01-13T10:03:43;97756.16;;;-21.31;70.00
45129;BME280;35512;56.312;101.728;2023-01-13T10:06:17;97750.63;;;-21.36;70.54
45129;BME280;35512;56.312;101.728;2023-01-13T10:08:47;97738.34;;;-21.32;70.26
45129;BME280;35512;56.312;101.728;2023-01-13T10:11:22;97736.47;;;-21.30;70.57
45129;BME280;35512;56.312;101.728;2023-01-13T10:14:11;97730.28;;;-21.28;70.38
45129;BME280;35512;56.312;101.728;2023-01-13T10:16:49;97739.16;;;-21.32;70.30
45129;BME280;35512;56.312;101.728;2023-01-13T10:19:46;97729.41;;;-21.38;70.55
45129;BME280;35512;56.312;101.728;2023-01-13T10:22:23;97728.91;;;-21.32;70.78
45129;BME280;35512;56.312;101.728;2023-01-13T10:25:12;97719.06;;;-21.27;70.72
45129;BME280;35512;56.312;101.728;2023-01-13T10:27:49;97725.44;;;-21.21;70.77
45129;BME280;35512;56.312;101.728;2023-01-13T10:30:24;97714.91;;;-21.18;70.71
45129;BME280;35512;56.312;101.728;2023-01-13T10:33:16;97707.22;;;-21.18;70.67
45129;BME280;35512;56.312;101.728;2023-01-13T10:35:56;97712.22;;;-21.16;70.75
45129;BME280;35512;56.312;101.728;2023-01-13T10:43:37;97698.72;;;-21.08;70.80
45129;BME280;35512;56.312;101.728;2023-01-13T10:46:13;97690.97;;;-21.18;70.88
45129;BME280;35512;56.312;101.728;2023-01-13T10:48:53;97701.44;;;-21.10;71.11
45129;BME280;35512;56.312;101.728;2023-01-13T10:54:19;97695.50;;;-21.01;71.56
45129;BME280;35512;56.312;101.728;2023-01-13T10:57:13;97682.53;;;-20.99;71.15
45129;BME280;35512;56.312;101.728;2023-01-13T10:59:43;97687.69;;;-20.89;71.21
45129;BME280;35512;56.312;101.728;2023-01-13T11:02:16;97680.53;;;-20.86;71.28
45129;BME280;35512;56.312;101.728;2023-01-13T11:07:38;97686.63;;;-20.67;71.47
45129;BME280;35512;56.312;101.728;2023-01-13T11:12:56;97674.97;;;-20.62;71.16
45129;BME280;35512;56.312;101.728;2023-01-13T11:15:37;97669.03;;;-20.62;71.53
45129;BME280;35512;56.312;101.728;2023-01-13T11:20:50;97667.97;;;-20.60;71.85
45129;BME280;35512;56.312;101.728;2023-01-13T11:26:14;97649.97;;;-20.50;71.58
45129;BME280;35512;56.312;101.728;2023-01-13T11:29:07;97666.06;;;-20.38;71.47
45129;BME280;35512;56.312;101.728;2023-01-13T11:31:53;97658.75;;;-20.33;71.66
45129;BME280;35512;56.312;101.728;2023-01-13T11:36:57;97648.19;;;-20.20;71.95
45129;BME280;35512;56.312;101.728;2023-01-13T11:47:49;97631.38;;;-20.04;71.99
45129;BME280;35512;56.312;101.728;2023-01-13T11:50:52;97620.81;;;-20.01;72.25
45129;BME280;35512;56.312;101.728;2023-01-13T11:59:44;97613.31;;;-19.85;72.38
45129;BME280;35512;56.312;101.728;2023-01-13T12:02:47;97601.22;;;-19.75;72.35
45129;BME280;35512;56.312;101.728;2023-01-13T12:05:39;97599.03;;;-19.69;72.50
45129;BME280;35512;56.312;101.728;2023-01-13T12:11:14;97592.75;;;-19.57;72.71
45129;BME280;35512;56.312;101.728;2023-01-13T12:16:28;97584.28;;;-19.40;72.63
45129;BME280;35512;56.312;101.728;2023-01-13T12:19:29;97585.44;;;-19.34;72.76
45129;BME280;35512;56.312;101.728;2023-01-13T12:22:14;97592.00;;;-19.21;73.21
45129;BME280;35512;56.312;101.728;2023-01-13T12:24:59;97570.56;;;-19.12;73.05
45129;BME280;35512;56.312;101.728;2023-01-13T12:30:48;97568.63;;;-18.92;72.67
45129;BME280;35512;56.312;101.728;2023-01-13T12:33:43;97565.56;;;-18.96;72.80
45129;BME280;35512;56.312;101.728;2023-01-13T12:39:26;97562.25;;;-18.80;72.92
45129;BME280;35512;56.312;101.728;2023-01-13T12:42:05;97554.47;;;-18.70;73.01
45129;BME280;35512;56.312;101.728;2023-01-13T12:47:38;97550.47;;;-18.64;73.06
45129;BME280;35512;56.312;101.728;2023-01-13T12:53:00;97534.72;;;-18.61;73.08
45129;BME280;35512;56.312;101.728;2023-01-13T12:55:52;97535.09;;;-18.56;73.25
45129;BME280;35512;56.312;101.728;2023-01-13T12:58:27;97518.53;;;-18.72;72.81
45129;BME280;35512;56.312;101.728;2023-01-13T13:00:59;97516.94;;;-18.73;73.20
45129;BME280;35512;56.312;101.728;2023-01-13T13:03:32;97518.41;;;-18.70;73.35
45129;BME280;35512;56.312;101.728;2023-01-13T13:06:19;97527.00;;;-18.61;73.78
45129;BME280;35512;56.312;101.728;2023-01-13T13:09:04;97503.75;;;-18.69;73.79
45129;BME280;35512;56.312;101.728;2023-01-13T13:11:35;97522.56;;;-18.51;73.85
45129;BME280;35512;56.312;101.728;2023-01-13T13:19:58;97494.75;;;-18.39;73.91
45129;BME280;35512;56.312;101.728;2023-01-13T13:22:40;97467.16;;;-18.47;73.84
45129;BME280;35512;56.312;101.728;2023-01-13T13:25:22;97475.44;;;-18.35;73.84
45129;BME280;35512;56.312;101.728;2023-01-13T13:28:05;97478.69;;;-18.33;74.04
45129;BME280;35512;56.312;101.728;2023-01-13T13:30:38;97485.31;;;-18.30;74.13
45129;BME280;35512;56.312;101.728;2023-01-13T13:33:18;97474.50;;;-18.26;74.28
45129;BME280;35512;56.312;101.728;2023-01-13T13:41:46;97464.28;;;-18.09;74.49
45129;BME280;35512;56.312;101.728;2023-01-13T13:44:39;97463.00;;;-18.05;74.21
45129;BME280;35512;56.312;101.728;2023-01-13T13:47:37;97464.97;;;-17.99;74.25
45129;BME280;35512;56.312;101.728;2023-01-13T13:50:16;97462.22;;;-17.97;74.56
45129;BME280;35512;56.312;101.728;2023-01-13T13:52:57;97459.81;;;-17.99;74.47
45129;BME280;35512;56.312;101.728;2023-01-13T13:55:27;97448.81;;;-18.09;74.07
45129;BME280;35512;56.312;101.728;2023-01-13T13:57:58;97447.84;;;-18.08;74.48
45129;BME280;35512;56.312;101.728;2023-01-13T14:00:33;97449.31;;;-18.06;74.77
45129;BME280;35512;56.312;101.728;2023-01-13T14:03:06;97442.22;;;-18.04;74.35
45129;BME280;35512;56.312;101.728;2023-01-13T14:05:36;97449.00;;;-18.02;74.74
45129;BME280;35512;56.312;101.728;2023-01-13T14:10:39;97438.66;;;-18.02;74.53
45129;BME280;35512;56.312;101.728;2023-01-13T14:16:05;97425.28;;;-18.06;74.36
45129;BME280;35512;56.312;101.728;2023-01-13T14:18:44;97428.03;;;-17.99;74.65
45129;BME280;35512;56.312;101.728;2023-01-13T14:21:32;97429.50;;;-17.97;74.32
45129;BME280;35512;56.312;101.728;2023-01-13T14:24:11;97415.28;;;-18.01;74.35
45129;BME280;35512;56.312;101.728;2023-01-13T14:26:41;97412.75;;;-17.93;74.42
45129;BME280;35512;56.312;101.728;2023-01-13T14:29:15;97413.38;;;-17.91;74.49
45129;BME280;35512;56.312;101.728;2023-01-13T14:31:47;97407.09;;;-17.88;74.49
45129;BME280;35512;56.312;101.728;2023-01-13T14:34:17;97413.06;;;-17.88;74.64
45129;BME280;35512;56.312;101.728;2023-01-13T14:37:01;97403.41;;;-17.86;74.39
45129;BME280;35512;56.312;101.728;2023-01-13T14:39:39;97401.63;;;-17.85;74.41
45129;BME280;35512;56.312;101.728;2023-01-13T14:42:12;97400.66;;;-17.84;74.81
45129;BME280;35512;56.312;101.728;2023-01-13T14:44:45;97405.50;;;-17.81;74.67
45129;BME280;35512;56.312;101.728;2023-01-13T14:47:22;97407.91;;;-17.79;74.76
45129;BME280;35512;56.312;101.728;2023-01-13T14:52:48;97390.16;;;-17.82;74.56
45129;BME280;35512;56.312;101.728;2023-01-13T15:00:52;97390.50;;;-17.77;74.65
45129;BME280;35512;56.312;101.728;2023-01-13T15:03:41;97378.22;;;-17.83;74.67
45129;BME280;35512;56.312;101.728;2023-01-13T15:06:24;97376.78;;;-17.78;74.83
45129;BME280;35512;56.312;101.728;2023-01-13T15:08:53;97376.31;;;-17.81;74.61
45129;BME280;35512;56.312;101.728;2023-01-13T15:11:24;97376.00;;;-17.78;74.65
45129;BME280;35512;56.312;101.728;2023-01-13T15:13:59;97371.78;;;-17.79;75.21
45129;BME280;35512;56.312;101.728;2023-01-13T15:16:29;97359.38;;;-17.84;74.87
45129;BME280;35512;56.312;101.728;2023-01-13T15:19:01;97352.44;;;-17.83;75.04
45129;BME280;35512;56.312;101.728;2023-01-13T15:21:33;97349.50;;;-17.89;75.03
45129;BME280;35512;56.312;101.728;2023-01-13T15:24:02;97366.00;;;-17.73;74.76